Time;durP1;ratioP1;P1;durP2;ratioP2;P2;SDS_P1;SDS_P2;PMS_P1;PMS_P2;Temp;Humidity;BMP_temperature;BMP_pressure;BME280_temperature;BME280_humidity;BME280_pressure;Samples;Min_cycle;Max_cycle;Signal;HPM_P1;HPM_P2
2023/12/15 00:01:29;;;;;;;12.48;3.40;;;;;;;;;;5066626;28;20036;-79
2023/12/15 00:03:55;;;;;;;6.63;3.08;;;;;;;;;;5070378;28;20122;-79
2023/12/15 00:06:21;;;;;;;7.85;2.58;;;;;;;;;;5068833;28;20035;-79
2023/12/15 00:08:47;;;;;;;10.05;3.38;;;;;;;;;;5084924;28;20034;-79
2023/12/15 00:11:13;;;;;;;5.03;2.38;;;;;;;;;;5065354;28;20028;-82
2023/12/15 00:13:39;;;;;;;7.72;3.25;;;;;;;;;;5081814;28;20115;-79
2023/12/15 00:16:06;;;;;;;6.20;2.25;;;;;;;;;;5084523;28;20047;-79
2023/12/15 00:18:32;;;;;;;8.07;3.00;;;;;;;;;;5082159;28;20515;-80
2023/12/15 00:20:58;;;;;;;7.63;2.85;;;;;;;;;;5081056;28;20028;-79
2023/12/15 00:23:24;;;;;;;6.97;3.20;;;;;;;;;;5084698;28;20040;-78
2023/12/15 00:25:50;;;;;;;5.13;2.22;;;;;;;;;;5063711;28;20030;-78
2023/12/15 00:28:16;;;;;;;8.70;2.83;;;;;;;;;;5066901;28;20681;-78
2023/12/15 00:30:42;;;;;;;5.95;2.72;;;;;;;;;;5080874;28;20374;-78
2023/12/15 00:33:08;;;;;;;8.43;3.45;;;;;;;;;;5084479;28;20029;-78
2023/12/15 00:35:34;;;;;;;7.75;3.22;;;;;;;;;;5088229;28;20036;-77
2023/12/15 00:38:00;;;;;;;6.35;2.92;;;;;;;;;;5064414;28;20116;-78
2023/12/15 00:40:26;;;;;;;12.52;3.72;;;;;;;;;;5084987;28;20046;-78
2023/12/15 00:42:52;;;;;;;6.32;3.17;;;;;;;;;;5095115;28;20798;-76
2023/12/15 00:45:18;;;;;;;6.10;2.70;;;;;;;;;;5087203;28;20039;-78
2023/12/15 00:47:44;;;;;;;6.97;2.90;;;;;;;;;;5092839;28;20035;-78
2023/12/15 00:50:12;;;;;;;9.98;3.70;;;;;;;;;;5087278;28;20537;-78
2023/12/15 00:52:39;;;;;;;4.72;2.78;;;;;;;;;;5070840;28;20036;-78
2023/12/15 00:55:05;;;;;;;9.98;3.58;;;;;;;;;;5087544;28;20085;-78
2023/12/15 00:57:31;;;;;;;8.68;3.63;;;;;;;;;;5085683;28;20120;-78
2023/12/15 00:59:58;;;;;;;6.90;3.13;;;;;;;;;;5079560;28;20493;-78
2023/12/15 01:02:24;;;;;;;8.57;3.45;;;;;;;;;;5078600;28;20103;-78
2023/12/15 01:04:50;;;;;;;6.88;3.35;;;;;;;;;;5066994;28;20035;-78
2023/12/15 01:07:16;;;;;;;7.22;3.45;;;;;;;;;;5083237;28;20055;-78
2023/12/15 01:09:42;;;;;;;9.23;3.30;;;;;;;;;;5080766;28;20077;-78
2023/12/15 01:12:08;;;;;;;7.35;3.75;;;;;;;;;;5081687;28;20029;-78
2023/12/15 01:14:34;;;;;;;7.65;3.10;;;;;;;;;;5081533;28;20038;-78
2023/12/15 01:17:00;;;;;;;8.10;3.83;;;;;;;;;;5081312;28;20028;-79
2023/12/15 01:19:26;;;;;;;8.35;3.45;;;;;;;;;;5086419;28;20054;-78
2023/12/15 01:21:53;;;;;;;8.88;4.13;;;;;;;;;;5086074;28;20433;-79
2023/12/15 01:24:19;;;;;;;6.90;3.15;;;;;;;;;;5091234;28;20432;-78
2023/12/15 01:26:45;;;;;;;14.43;4.07;;;;;;;;;;5070035;28;20050;-79
2023/12/15 01:29:11;;;;;;;8.52;3.50;;;;;;;;;;5053273;28;20058;-79
2023/12/15 01:31:37;;;;;;;8.65;4.03;;;;;;;;;;5090968;28;20471;-79
2023/12/15 01:34:03;;;;;;;9.70;2.92;;;;;;;;;;5090314;28;20034;-77
2023/12/15 01:36:29;;;;;;;8.20;3.53;;;;;;;;;;5109758;28;20034;-78
2023/12/15 01:38:55;;;;;;;8.45;3.20;;;;;;;;;;5103812;28;20044;-79
2023/12/15 01:41:21;;;;;;;9.75;3.97;;;;;;;;;;5103507;28;20020;-80
2023/12/15 01:43:47;;;;;;;10.57;4.47;;;;;;;;;;5092007;28;20032;-80
2023/12/15 01:46:13;;;;;;;9.27;4.10;;;;;;;;;;5104527;28;20032;-80
2023/12/15 01:48:40;;;;;;;9.45;4.15;;;;;;;;;;5074386;28;20024;-79
2023/12/15 01:51:06;;;;;;;7.32;3.60;;;;;;;;;;5075467;28;20035;-78
2023/12/15 01:53:32;;;;;;;12.07;4.13;;;;;;;;;;5090621;28;20039;-78
2023/12/15 01:55:59;;;;;;;11.32;4.18;;;;;;;;;;5094361;28;20100;-78
2023/12/15 01:58:25;;;;;;;13.57;4.28;;;;;;;;;;5088322;28;20382;-79
2023/12/15 02:00:51;;;;;;;8.55;3.75;;;;;;;;;;5084363;28;20047;-78
2023/12/15 02:03:17;;;;;;;10.82;4.97;;;;;;;;;;5057834;28;20040;-79
2023/12/15 02:05:43;;;;;;;9.90;4.30;;;;;;;;;;5087143;28;20024;-78
2023/12/15 02:08:09;;;;;;;22.75;8.05;;;;;;;;;;5069044;28;20448;-78
2023/12/15 02:10:38;;;;;;;22.33;8.23;;;;;;;;;;5069002;28;20051;-78
2023/12/15 02:13:04;;;;;;;18.08;7.57;;;;;;;;;;5084082;28;20050;-77
2023/12/15 02:15:31;;;;;;;16.77;6.82;;;;;;;;;;5076421;28;20107;-78
2023/12/15 02:17:57;;;;;;;12.73;6.00;;;;;;;;;;5075373;28;20028;-79
2023/12/15 02:20:23;;;;;;;8.95;4.60;;;;;;;;;;5081084;28;20371;-78
2023/12/15 02:22:49;;;;;;;11.75;4.03;;;;;;;;;;5071767;28;20042;-78
2023/12/15 02:25:15;;;;;;;12.15;5.13;;;;;;;;;;5089669;28;20111;-78
2023/12/15 02:27:41;;;;;;;9.70;3.92;;;;;;;;;;5069874;28;20024;-78
2023/12/15 02:30:07;;;;;;;11.18;4.78;;;;;;;;;;5079523;28;20826;-79
2023/12/15 02:32:33;;;;;;;10.63;5.00;;;;;;;;;;5089650;28;20249;-79
2023/12/15 02:35:00;;;;;;;13.98;4.85;;;;;;;;;;5081913;28;20031;-78
2023/12/15 02:37:27;;;;;;;11.23;4.78;;;;;;;;;;5084388;28;20402;-78
2023/12/15 02:39:53;;;;;;;12.65;4.90;;;;;;;;;;5069289;28;20031;-78
2023/12/15 02:42:19;;;;;;;11.77;5.00;;;;;;;;;;5071817;28;20024;-78
2023/12/15 02:44:46;;;;;;;12.60;4.85;;;;;;;;;;5085197;28;20099;-79
2023/12/15 02:47:12;;;;;;;9.30;4.78;;;;;;;;;;5083009;28;20132;-79
2023/12/15 02:49:41;;;;;;;9.55;4.15;;;;;;;;;;5085558;28;20119;-79
2023/12/15 02:52:08;;;;;;;8.45;4.10;;;;;;;;;;5066221;28;20020;-78
2023/12/15 02:54:35;;;;;;;9.00;3.83;;;;;;;;;;5089534;28;20036;-79
2023/12/15 02:57:01;;;;;;;15.55;5.00;;;;;;;;;;5084472;28;20047;-79
2023/12/15 02:59:27;;;;;;;10.43;4.88;;;;;;;;;;5081098;28;20031;-79
2023/12/15 03:01:53;;;;;;;13.60;4.35;;;;;;;;;;5086243;28;20028;-79
2023/12/15 03:04:19;;;;;;;10.18;3.78;;;;;;;;;;5085307;28;20028;-79
2023/12/15 03:06:45;;;;;;;10.73;4.75;;;;;;;;;;5066708;28;20076;-78
2023/12/15 03:09:14;;;;;;;11.35;3.45;;;;;;;;;;5085488;28;20032;-79
2023/12/15 03:11:39;;;;;;;11.82;3.75;;;;;;;;;;5082807;28;20044;-79
2023/12/15 03:14:05;;;;;;;9.82;4.00;;;;;;;;;;5084170;28;20028;-79
2023/12/15 03:16:31;;;;;;;9.63;3.67;;;;;;;;;;5087335;28;20035;-79
2023/12/15 03:18:57;;;;;;;8.90;4.35;;;;;;;;;;5072059;28;20023;-79
2023/12/15 03:21:23;;;;;;;9.40;4.15;;;;;;;;;;5067115;28;20023;-79
2023/12/15 03:23:49;;;;;;;11.38;4.18;;;;;;;;;;5085317;28;20071;-77
2023/12/15 03:26:15;;;;;;;10.77;4.18;;;;;;;;;;5073614;28;20024;-79
2023/12/15 03:28:42;;;;;;;11.02;4.40;;;;;;;;;;5084822;28;20106;-79
2023/12/15 03:31:08;;;;;;;9.38;3.20;;;4.10;99.90;;;;;;5070160;28;20115;-79
2023/12/15 03:33:35;;;;;;;5.85;1.98;;;;;;;;;;5081339;28;20467;-79
2023/12/15 03:36:01;;;;;;;10.32;3.33;;;;;;;;;;5082961;28;22320;-79
2023/12/15 03:38:27;;;;;;;13.60;4.28;;;;;;;;;;5067612;28;20390;-79
2023/12/15 03:40:53;;;;;;;6.97;3.15;;;;;;;;;;5083465;28;20020;-79
2023/12/15 03:43:19;;;;;;;11.70;4.25;;;;;;;;;;5068966;28;20035;-79
2023/12/15 03:45:46;;;;;;;8.25;3.53;;;;;;;;;;5065835;28;20039;-79
2023/12/15 03:48:12;;;;;;;12.75;3.95;;;;;;;;;;5077157;28;20023;-79
2023/12/15 03:50:38;;;;;;;21.88;7.72;;;;;;;;;;5063397;28;20054;-79
2023/12/15 03:53:03;;;;;;;12.88;4.38;;;;;;;;;;5086501;28;20538;-78
2023/12/15 03:55:29;;;;;;;10.77;2.85;;;;;;;;;;5081593;28;20077;-79
2023/12/15 03:57:58;;;;;;;20.83;6.30;;;;;;;;;;5067019;28;20390;-79
2023/12/15 04:00:24;;;;;;;19.33;5.60;;;;;;;;;;5081972;28;20063;-79
2023/12/15 04:02:50;;;;;;;12.48;5.13;;;;;;;;;;5085627;28;20067;-79
2023/12/15 04:05:16;;;;;;;8.18;3.70;;;;;;;;;;5071753;28;20032;-79
2023/12/15 04:07:42;;;;;;;9.85;3.47;;;;;;;;;;5071329;28;20122;-77
2023/12/15 04:10:09;;;;;;;8.93;3.97;;;;;;;;;;5080566;28;20028;-79
2023/12/15 04:12:35;;;;;;;18.23;3.92;;;;;;;;;;5068067;28;20494;-79
2023/12/15 04:15:02;;;;;;;8.98;3.65;;;;;;;;;;5085167;28;20121;-79
2023/12/15 04:17:28;;;;;;;8.90;3.22;;;;;;;;;;5074412;28;20026;-79
2023/12/15 04:19:53;;;;;;;9.15;3.78;;;;;;;;;;5072763;28;20440;-79
2023/12/15 04:22:22;;;;;;;7.63;3.17;;;;;;;;;;5084982;28;20039;-79
2023/12/15 04:24:49;;;;;;;10.02;3.65;;;;;;;;;;5104757;28;20493;-77
2023/12/15 04:27:15;;;;;;;8.25;2.67;;;;;;;;;;5082766;28;20055;-78
2023/12/15 04:29:41;;;;;;;7.93;3.05;;;;;;;;;;5082574;28;20025;-78
2023/12/15 04:32:08;;;;;;;13.07;3.83;;;;;;;;;;5084967;28;20143;-79
2023/12/15 04:34:37;;;;;;;7.28;3.28;;;;;;;;;;5085366;28;20098;-79
2023/12/15 04:37:03;;;;;;;9.32;3.53;;;;;;;;;;5085870;28;20082;-78
2023/12/15 04:39:29;;;;;;;7.47;3.25;;;;;;;;;;5072290;28;20016;-79
2023/12/15 04:41:55;;;;;;;8.38;3.50;;;;;;;;;;5064573;28;20020;-80
2023/12/15 04:44:21;;;;;;;12.07;4.65;;;;;;;;;;5088557;28;20070;-79
2023/12/15 04:46:47;;;;;;;12.48;4.07;;;;;;;;;;5081797;28;20505;-79
2023/12/15 04:49:13;;;;;;;10.52;3.45;;;;;;;;;;5082470;28;20491;-79
2023/12/15 04:51:38;;;;;;;8.05;3.15;;;;;;;;;;5070315;28;20043;-79
2023/12/15 04:54:04;;;;;;;6.25;2.60;;;;;;;;;;5073660;28;20122;-79
2023/12/15 04:56:30;;;;;;;7.63;2.45;;;;;;;;;;5086808;28;20029;-79
2023/12/15 04:58:58;;;;;;;8.50;3.17;;;;;;;;;;5095114;28;20024;-79
2023/12/15 05:01:25;;;;;;;13.75;3.35;;;;;;;;;;5086264;28;20409;-80
2023/12/15 05:03:51;;;;;;;14.23;4.47;;;;;;;;;;5086154;28;20016;-79
2023/12/15 05:06:18;;;;;;;6.90;3.00;;;;;;;;;;5069109;28;20039;-80
2023/12/15 05:08:44;;;;;;;14.80;4.30;;;;;;;;;;5094137;28;20024;-79
2023/12/15 05:11:12;;;;;;;9.27;3.58;;;;;;;;;;5071373;28;20547;-79
2023/12/15 05:13:38;;;;;;;12.10;3.45;;;;;;;;;;5092346;28;20056;-79
2023/12/15 05:16:04;;;;;;;10.15;3.72;;;4.60;99.90;;;;;;5053721;28;20475;-79
2023/12/15 05:18:30;;;;;;;8.05;3.33;;;;;;;;;;5070680;28;20059;-79
2023/12/15 05:20:56;;;;;;;10.85;3.50;;;;;;;;;;5084806;28;20067;-78
2023/12/15 05:23:22;;;;;;;9.27;3.00;;;;;;;;;;5090921;28;20085;-79
2023/12/15 05:25:48;;;;;;;8.90;3.13;;;;;;;;;;5077484;28;21286;-78
2023/12/15 05:28:14;;;;;;;7.45;3.38;;;;;;;;;;5086117;28;20235;-78
2023/12/15 05:30:41;;;;;;;8.80;2.90;;;;;;;;;;5089361;28;20064;-78
2023/12/15 05:33:07;;;;;;;6.30;2.75;;;;;;;;;;5087541;28;20481;-80
2023/12/15 05:35:33;;;;;;;13.18;3.72;;;;;;;;;;5071400;28;20024;-81
2023/12/15 05:38:00;;;;;;;8.00;3.17;;;;;;;;;;5073395;28;20032;-80
2023/12/15 05:40:26;;;;;;;9.70;4.05;;;;;;;;;;5089646;28;20044;-79
2023/12/15 05:42:51;;;;;;;7.95;3.80;;;;;;;;;;5080707;28;20106;-79
2023/12/15 05:45:17;;;;;;;7.80;3.42;;;4.60;99.90;;;;;;5069368;28;20466;-80
2023/12/15 05:47:43;;;;;;;9.20;4.15;;;;;;;;;;5087196;28;20028;-79
2023/12/15 05:50:09;;;;;;;7.93;3.63;;;;;;;;;;5091172;28;20485;-79
2023/12/15 05:52:35;;;;;;;12.05;3.70;;;;;;;;;;5067802;28;20033;-79
2023/12/15 05:55:01;;;;;;;8.32;2.92;;;;;;;;;;5092363;28;20475;-79
2023/12/15 05:57:27;;;;;;;41.85;13.05;;;;;;;;;;5088071;28;20374;-79
2023/12/15 05:59:53;;;;;;;16.10;6.07;;;;;;;;;;5085702;28;20500;-79
2023/12/15 06:02:19;;;;;;;14.50;5.22;;;;;;;;;;5086378;28;20020;-79
2023/12/15 06:04:45;;;;;;;10.07;3.47;;;;;;;;;;5084717;28;20101;-79
2023/12/15 06:07:11;;;;;;;10.93;3.47;;;;;;;;;;5081855;28;20393;-79
2023/12/15 06:09:37;;;;;;;6.57;3.05;;;;;;;;;;5089141;28;20038;-79
2023/12/15 06:12:04;;;;;;;8.48;2.67;;;4.70;99.90;;;;;;5068732;28;20043;-79
2023/12/15 06:14:30;;;;;;;10.00;2.63;;;;;;;;;;5089464;28;20046;-79
2023/12/15 06:16:56;;;;;;;13.55;4.13;;;;;;;;;;5073846;28;20020;-78
2023/12/15 06:19:23;;;;;;;9.98;4.18;;;;;;;;;;5087733;28;20032;-80
2023/12/15 06:21:49;;;;;;;12.65;3.97;;;;;;;;;;5083510;28;20478;-78
2023/12/15 06:24:15;;;;;;;27.13;8.93;;;;;;;;;;5069855;28;20032;-79
2023/12/15 06:26:41;;;;;;;43.75;16.13;;;;;;;;;;5087285;28;20058;-79
2023/12/15 06:29:07;;;;;;;25.23;9.68;;;;;;;;;;5091492;28;20067;-79
2023/12/15 06:31:33;;;;;;;15.30;6.10;;;;;;;;;;5086548;28;20085;-79
2023/12/15 06:33:59;;;;;;;12.98;4.95;;;;;;;;;;5075199;28;20060;-78
2023/12/15 06:36:26;;;;;;;10.82;4.10;;;;;;;;;;5105715;28;20130;-79
2023/12/15 06:38:52;;;;;;;11.77;3.80;;;;;;;;;;5074108;28;20020;-78
2023/12/15 06:41:18;;;;;;;13.45;4.63;;;;;;;;;;5074656;28;20032;-80
2023/12/15 06:43:45;;;;;;;12.52;4.70;;;;;;;;;;5074640;28;20032;-79
2023/12/15 06:46:12;;;;;;;9.57;3.90;;;;;;;;;;5086108;28;20028;-78
2023/12/15 06:48:38;;;;;;;11.00;5.28;;;;;;;;;;5086109;28;20032;-79
2023/12/15 06:51:06;;;;;;;15.48;5.88;;;;;;;;;;5072621;28;20047;-79
2023/12/15 06:53:33;;;;;;;13.77;5.13;;;;;;;;;;5092536;28;20115;-80
2023/12/15 06:55:59;;;;;;;14.20;6.00;;;;;;;;;;5072099;28;20164;-80
2023/12/15 06:58:25;;;;;;;13.52;4.40;;;;;;;;;;5089616;28;20032;-80
2023/12/15 07:00:53;;;;;;;9.25;4.03;;;;;;;;;;5074126;28;20028;-80
2023/12/15 07:03:20;;;;;;;14.88;4.05;;;4.50;99.90;;;;;;5074206;28;20035;-80
2023/12/15 07:05:46;;;;;;;13.82;4.97;;;;;;;;;;5068544;28;20059;-79
2023/12/15 07:08:12;;;;;;;12.68;5.38;;;;;;;;;;5088471;28;20060;-79
2023/12/15 07:10:37;;;;;;;16.70;4.90;;;;;;;;;;5076020;28;20032;-80
2023/12/15 07:13:04;;;;;;;14.40;4.75;;;;;;;;;;5088262;28;20071;-80
2023/12/15 07:15:30;;;;;;;11.65;3.72;;;;;;;;;;5086632;28;20032;-78
2023/12/15 07:17:57;;;;;;;13.70;4.53;;;;;;;;;;5070032;28;20044;-78
2023/12/15 07:20:25;;;;;;;15.05;5.05;;;;;;;;;;5066469;28;20108;-80
2023/12/15 07:22:51;;;;;;;14.75;4.43;;;;;;;;;;5082226;28;20020;-79
2023/12/15 07:25:17;;;;;;;12.02;4.38;;;;;;;;;;5088241;28;20478;-79
2023/12/15 07:27:43;;;;;;;11.13;4.07;;;;;;;;;;5068377;28;20112;-79
2023/12/15 07:30:09;;;;;;;12.73;4.60;;;;;;;;;;5077759;28;20020;-79
2023/12/15 07:32:35;;;;;;;10.30;4.57;;;;;;;;;;5093878;28;20028;-80
2023/12/15 07:35:01;;;;;;;11.73;4.78;;;;;;;;;;5085345;28;20031;-80
2023/12/15 07:37:27;;;;;;;9.15;4.05;;;;;;;;;;5091071;28;20084;-78
2023/12/15 07:39:54;;;;;;;14.50;5.60;;;;;;;;;;5072883;28;20047;-79
2023/12/15 07:42:20;;;;;;;14.80;5.38;;;;;;;;;;5081695;28;20505;-79
2023/12/15 07:44:46;;;;;;;9.38;4.15;;;;;;;;;;5088169;28;20032;-79
2023/12/15 07:47:12;;;;;;;13.27;5.30;;;;;;;;;;5073216;28;20103;-80
2023/12/15 07:49:38;;;;;;;13.07;4.45;;;;;;;;;;5081413;28;20035;-80
2023/12/15 07:52:04;;;;;;;13.38;4.72;;;4.60;99.90;;;;;;5072754;28;20040;-82
2023/12/15 07:54:30;;;;;;;9.38;4.30;;;;;;;;;;5091928;28;20024;-80
2023/12/15 07:56:56;;;;;;;13.70;5.57;;;5.40;99.90;;;;;;5071696;28;20024;-80
2023/12/15 07:59:22;;;;;;;13.43;4.05;;;;;;;;;;5085669;28;20032;-80
2023/12/15 08:01:50;;;;;;;13.40;4.60;;;;;;;;;;5083923;28;20538;-79
2023/12/15 08:04:16;;;;;;;17.90;5.88;;;;;;;;;;5080802;28;20488;-79
2023/12/15 08:06:42;;;;;;;12.52;5.25;;;;;;;;;;5072259;28;20059;-79
2023/12/15 08:09:08;;;;;;;11.82;5.65;;;;;;;;;;5083094;28;20538;-79
2023/12/15 08:11:34;;;;;;;11.90;5.60;;;;;;;;;;5077486;28;20403;-80
2023/12/15 08:14:03;;;;;;;12.68;4.32;;;;;;;;;;5086822;28;20428;-80
2023/12/15 08:16:29;;;;;;;14.15;5.13;;;;;;;;;;5088064;28;20096;-79
2023/12/15 08:18:56;;;;;;;13.77;5.80;;;;;;;;;;5072395;28;20218;-80
2023/12/15 08:21:22;;;;;;;14.70;5.25;;;;;;;;;;5070848;28;20061;-79
2023/12/15 08:23:48;;;;;;;15.93;5.20;;;;;;;;;;5089050;28;20267;-79
2023/12/15 08:26:26;;;;;;;18.65;6.82;;;;;;;;;;5083980;28;20067;-80
2023/12/15 08:28:53;;;;;;;16.88;7.00;;;;;;;;;;5072650;28;20055;-79
2023/12/15 08:31:19;;;;;;;17.55;5.18;;;;;;;;;;5090134;28;20020;-79
2023/12/15 08:33:45;;;;;;;20.38;6.40;;;;;;;;;;5076952;28;20382;-79
2023/12/15 08:36:11;;;;;;;12.90;5.88;;;;;;;;;;5092865;28;20023;-79
2023/12/15 08:38:37;;;;;;;12.57;5.25;;;;;;;;;;5090750;28;20066;-80
2023/12/15 08:41:03;;;;;;;17.13;6.18;;;6.20;99.90;;;;;;5078628;28;20039;-79
2023/12/15 08:43:29;;;;;;;13.07;5.30;;;;;;;;;;5071130;28;20024;-79
2023/12/15 08:45:57;;;;;;;18.83;6.82;;;5.50;99.90;;;;;;5096578;28;20096;-76
2023/12/15 08:48:22;;;;;;;17.48;6.88;;;;;;;;;;5121303;28;20027;-80
2023/12/15 08:50:49;;;;;;;16.42;6.63;;;;;;;;;;5069154;28;20151;-79
2023/12/15 08:53:18;;;;;;;19.30;7.10;;;;;;;;;;5070816;28;20032;-78
2023/12/15 08:55:44;;;;;;;13.20;5.60;;;;;;;;;;5078579;28;20070;-78
2023/12/15 08:58:09;;;;;;;18.80;7.15;;;;;;;;;;5075703;28;20055;-79
2023/12/15 09:00:36;;;;;;;16.40;7.32;;;;;;;;;;5075906;28;20040;-79
2023/12/15 09:03:02;;;;;;;14.65;6.00;;;;;;;;;;5095169;28;20059;-80
2023/12/15 09:05:28;;;;;;;18.55;6.55;;;;;;;;;;5071986;28;20060;-79
2023/12/15 09:07:54;;;;;;;15.23;5.85;;;;;;;;;;5089988;28;20028;-79
2023/12/15 09:10:20;;;;;;;13.57;5.82;;;;;;;;;;5088066;28;20024;-79
2023/12/15 09:12:46;;;;;;;23.23;7.72;;;;;;;;;;5090760;28;20027;-80
2023/12/15 09:15:13;;;;;;;18.02;7.07;;;;;;;;;;5073640;28;20036;-79
2023/12/15 09:17:41;;;;;;;15.15;6.95;;;6.10;99.90;;;;;;5088874;28;20013;-78
2023/12/15 09:20:07;;;;;;;17.42;7.38;;;;;;;;;;5091292;28;20024;-79
2023/12/15 09:22:33;;;;;;;14.20;6.03;;;;;;;;;;5071342;28;20047;-79
2023/12/15 09:24:59;;;;;;;16.80;7.75;;;;;;;;;;5080003;28;20465;-78
2023/12/15 09:27:25;;;;;;;17.95;6.93;;;;;;;;;;5092061;28;20073;-78
2023/12/15 09:29:51;;;;;;;17.55;6.68;;;;;;;;;;5076710;28;20036;-80
2023/12/15 09:32:17;;;;;;;16.33;6.95;;;;;;;;;;5095007;28;20020;-81
2023/12/15 09:34:43;;;;;;;16.17;7.28;;;;;;;;;;5091050;28;20036;-81
2023/12/15 09:37:10;;;;;;;20.27;7.80;;;;;;;;;;5092590;28;20059;-80
2023/12/15 09:39:36;;;;;;;14.90;6.45;;;;;;;;;;5075288;28;20034;-79
2023/12/15 09:42:02;;;;;;;16.45;7.00;;;;;;;;;;5076409;28;20024;-80
2023/12/15 09:44:28;;;;;;;16.58;7.55;;;;;;;;;;5086163;28;20427;-81
2023/12/15 09:46:57;;;;;;;14.90;5.93;;;;;;;;;;5078691;28;20032;-82
2023/12/15 09:49:24;;;;;;;13.90;6.43;;;6.50;99.90;;;;;;5099161;28;20028;-80
2023/12/15 09:51:51;;;;;;;19.13;6.95;;;;;;;;;;5098957;28;20036;-81
2023/12/15 09:54:17;;;;;;;17.25;7.07;;;;;;;;;;5102169;28;20024;-80
2023/12/15 09:56:44;;;;;;;19.55;8.40;;;;;;;;;;5084381;28;20035;-79
2023/12/15 09:59:10;;;;;;;20.88;8.48;;;;;;;;;;5092895;28;20031;-80
2023/12/15 10:01:37;;;;;;;14.32;6.72;;;;;;;;;;5093672;28;20028;-80
2023/12/15 10:04:04;;;;;;;18.05;6.88;;;;;;;;;;5093442;28;20028;-79
2023/12/15 10:06:33;;;;;;;17.42;7.25;;;6.70;99.90;;;;;;5086317;28;20035;-79
2023/12/15 10:08:59;;;;;;;18.67;8.18;;;;;;;;;;5072026;28;20512;-79
2023/12/15 10:11:27;;;;;;;16.10;7.45;;;;;;;;;;5077450;28;20036;-79
2023/12/15 10:13:52;;;;;;;15.60;7.18;;;;;;;;;;5090730;28;20111;-80
2023/12/15 10:16:18;;;;;;;18.92;8.27;;;;;;;;;;5090324;28;20652;-80
2023/12/15 10:18:44;;;;;;;28.02;7.82;;;;;;;;;;5074491;28;20032;-79
2023/12/15 10:21:12;;;;;;;22.13;8.23;;;;;;;;;;5089207;28;20048;-79
2023/12/15 10:23:38;;;;;;;17.25;8.20;;;;;;;;;;5076781;28;20028;-79
2023/12/15 10:26:05;;;;;;;16.17;7.47;;;;;;;;;;5091822;28;20089;-80
2023/12/15 10:28:40;;;;;;;17.80;6.90;;;;;;;;;;5087684;28;20051;-78
2023/12/15 10:31:08;;;;;;;12.02;5.75;;;6.80;99.90;;;;;;5090419;28;20020;-80
2023/12/15 10:33:35;;;;;;;20.88;7.30;;;;;;;;;;5093445;28;20559;-80
2023/12/15 10:36:01;;;;;;;17.75;7.88;;;;;;;;;;5075194;28;20125;-80
2023/12/15 10:38:30;;;;;;;14.90;6.68;;;;;;;;;;5092370;28;20232;-80
2023/12/15 10:40:57;;;;;;;14.27;6.13;;;7.00;99.90;;;;;;5087167;28;20028;-79
2023/12/15 10:43:24;;;;;;;14.40;6.55;;;;;;;;;;5073527;28;20161;-79
2023/12/15 10:45:53;;;;;;;17.77;7.32;;;;;;;;;;5089203;28;20477;-79
2023/12/15 10:48:20;;;;;;;17.30;7.55;;;;;;;;;;5076744;28;20035;-80
2023/12/15 10:50:47;;;;;;;17.85;7.40;;;;;;;;;;5072465;28;20410;-80
2023/12/15 10:53:14;;;;;;;19.02;7.20;;;;;;;;;;5071042;28;20031;-79
2023/12/15 10:55:45;;;;;;;14.23;6.95;;;;;;;;;;5079151;28;20063;-80
2023/12/15 10:58:12;;;;;;;21.42;7.32;;;;;;;;;;5071091;28;20024;-79
2023/12/15 11:00:38;;;;;;;17.13;6.88;;;;;;;;;;5089860;28;20107;-80
2023/12/15 11:03:09;;;;;;;19.55;8.23;;;6.80;99.90;;;;;;5073610;28;20136;-79
2023/12/15 11:05:35;;;;;;;16.52;6.75;;;;;;;;;;5110218;28;20040;-77
2023/12/15 11:08:02;;;;;;;13.25;6.50;;;;;;;;;;5069862;28;20481;-77
2023/12/15 11:10:28;;;;;;;15.23;6.60;;;;;;;;;;5088389;28;20071;-79
2023/12/15 11:12:54;;;;;;;15.27;7.63;;;;;;;;;;5086897;28;20056;-78
2023/12/15 11:15:20;;;;;;;12.75;6.18;;;;;;;;;;5093389;28;20028;-79
2023/12/15 11:17:50;;;;;;;14.20;6.88;;;;;;;;;;5073641;28;20111;-79
2023/12/15 11:20:19;;;;;;;13.35;6.05;;;;;;;;;;5086290;28;20104;-78
2023/12/15 11:22:51;;;;;;;13.63;6.43;;;;;;;;;;5087652;28;20050;-79
2023/12/15 11:25:18;;;;;;;14.95;7.72;;;;;;;;;;5075458;28;20020;-79
2023/12/15 11:28:00;;;;;;;16.52;7.82;;;;;;;;;;5083109;28;20468;-78
2023/12/15 11:30:29;;;;;;;21.85;6.82;;;;;;;;;;5089041;28;20098;-79
2023/12/15 11:32:56;;;;;;;17.92;6.43;;;;;;;;;;5080474;28;20486;-78
2023/12/15 11:35:31;;;;;;;17.75;7.03;;;;;;;;;;5072027;28;20030;-78
2023/12/15 11:37:58;;;;;;;16.92;6.30;;;;;;;;;;5089663;28;20023;-79
2023/12/15 11:40:24;;;;;;;14.18;6.55;;;;;;;;;;5087048;28;20028;-79
2023/12/15 11:42:51;;;;;;;16.90;6.30;;;;;;;;;;5088181;28;20036;-79
2023/12/15 11:45:18;;;;;;;16.52;7.88;;;7.80;99.90;;;;;;5093542;28;20038;-79
2023/12/15 11:47:44;;;;;;;17.08;6.22;;;;;;;;;;5083478;28;20490;-78
2023/12/15 11:50:12;;;;;;;14.93;6.82;;;;;;;;;;5075014;28;20039;-79
2023/12/15 11:52:41;;;;;;;18.48;6.43;;;;;;;;;;5092332;28;20084;-80
2023/12/15 11:55:07;;;;;;;16.58;7.00;;;8.50;99.90;;;;;;5089129;28;20058;-79
2023/12/15 11:57:36;;;;;;;15.75;7.63;;;;;;;;;;5086853;28;20119;-78
2023/12/15 12:00:02;;;;;;;10.20;4.95;;;;;;;;;;5071168;28;20406;-79
2023/12/15 12:02:29;;;;;;;12.88;6.45;;;;;;;;;;5087404;28;20505;-79
2023/12/15 12:04:55;;;;;;;13.38;6.55;;;;;;;;;;5084354;28;20058;-79
2023/12/15 12:07:21;;;;;;;14.40;6.88;;;;;;;;;;5089691;28;20092;-79
2023/12/15 12:09:48;;;;;;;14.65;5.32;;;;;;;;;;5065803;28;20240;-79
2023/12/15 12:12:14;;;;;;;11.45;5.75;;;;;;;;;;5073440;28;20081;-79
2023/12/15 12:14:42;;;;;;;13.50;5.45;;;;;;;;;;5083355;28;20036;-79
2023/12/15 12:17:09;;;;;;;10.90;5.82;;;;;;;;;;5090193;28;20024;-78
2023/12/15 12:19:40;;;;;;;10.13;5.43;;;;;;;;;;5088471;28;20058;-79
2023/12/15 12:22:09;;;;;;;11.50;4.60;;;;;;;;;;5072069;28;20028;-79
2023/12/15 12:24:35;;;;;;;9.90;5.07;;;;;;;;;;5072850;28;20040;-79
2023/12/15 12:27:01;;;;;;;8.98;5.38;;;;;;;;;;5085995;28;20031;-79
2023/12/15 12:29:31;;;;;;;11.18;5.00;;;;;;;;;;5087080;28;20410;-79
2023/12/15 12:31:57;;;;;;;10.52;5.63;;;;;;;;;;5089543;28;20103;-80
2023/12/15 12:34:23;;;;;;;9.43;5.07;;;;;;;;;;5076745;28;20115;-79
2023/12/15 12:36:49;;;;;;;8.68;4.57;;;;;;;;;;5085863;28;20028;-79
2023/12/15 12:39:14;;;;;;;9.05;4.80;;;;;;;;;;5085933;28;20390;-79
2023/12/15 12:41:40;;;;;;;10.82;5.28;;;;;;;;;;5090043;28;20444;-79
2023/12/15 12:44:07;;;;;;;10.00;4.70;;;;;;;;;;5082338;28;20083;-79
2023/12/15 12:46:33;;;;;;;15.75;6.78;;;;;;;;;;5082245;28;20028;-79
2023/12/15 12:48:59;;;;;;;17.20;5.97;;;;;;;;;;5075159;28;20020;-79
2023/12/15 12:51:27;;;;;;;9.48;5.28;;;;;;;;;;5071978;28;20031;-78
2023/12/15 12:53:53;;;;;;;10.75;5.28;;;;;;;;;;5071430;28;20097;-79
2023/12/15 12:56:21;;;;;;;9.23;4.68;;;;;;;;;;5084988;28;20016;-79
2023/12/15 12:58:48;;;;;;;15.43;4.97;;;;;;;;;;5089961;28;20031;-78
2023/12/15 13:01:14;;;;;;;8.80;3.85;;;;;;;;;;5087892;28;20028;-79
2023/12/15 13:03:40;;;;;;;7.28;4.72;;;;;;;;;;5073701;28;20142;-79
2023/12/15 13:06:06;;;;;;;12.57;5.70;;;7.30;99.90;;;;;;5089301;28;20039;-79
2023/12/15 13:08:32;;;;;;;9.35;4.50;;;;;;;;;;5083686;28;20486;-79
2023/12/15 13:10:58;;;;;;;14.05;5.10;;;;;;;;;;5050185;28;20517;-79
2023/12/15 13:13:24;;;;;;;15.27;6.55;;;;;;;;;;5087351;28;20070;-79
2023/12/15 13:15:50;;;;;;;15.43;6.22;;;;;;;;;;5084194;28;20032;-78
2023/12/15 13:18:16;;;;;;;13.77;5.55;;;;;;;;;;5071583;28;20036;-81
2023/12/15 13:20:42;;;;;;;8.15;4.70;;;;;;;;;;5088878;28;20039;-80
2023/12/15 13:23:08;;;;;;;10.60;5.10;;;;;;;;;;5093757;28;20024;-79
2023/12/15 13:25:36;;;;;;;11.07;4.57;;;;;;;;;;5105447;28;20202;-78
2023/12/15 13:28:04;;;;;;;14.52;4.05;;;;;;;;;;5112760;28;20054;-78
2023/12/15 13:30:31;;;;;;;8.20;4.05;;;;;;;;;;5075832;28;20115;-80
2023/12/15 13:32:57;;;;;;;8.48;3.63;;;;;;;;;;5094847;28;20103;-79
2023/12/15 13:35:23;;;;;;;9.88;4.63;;;;;;;;;;5093579;28;20024;-80
2023/12/15 13:37:49;;;;;;;10.85;4.45;;;;;;;;;;5088066;28;20126;-81
2023/12/15 13:40:17;;;;;;;11.20;3.88;;;;;;;;;;5090020;28;20048;-79
2023/12/15 13:42:43;;;;;;;9.55;3.95;;;;;;;;;;5077803;28;20699;-80
2023/12/15 13:45:10;;;;;;;7.00;3.70;;;;;;;;;;5090286;28;20035;-80
2023/12/15 13:47:36;;;;;;;12.70;3.67;;;;;;;;;;5090034;28;20476;-79
2023/12/15 13:50:02;;;;;;;11.07;3.67;;;;;;;;;;5085903;28;20028;-81
2023/12/15 13:52:28;;;;;;;13.60;4.97;;;;;;;;;;5077201;28;20354;-81
2023/12/15 13:54:54;;;;;;;9.45;3.65;;;;;;;;;;5074339;28;20071;-80
2023/12/15 13:57:20;;;;;;;9.32;3.20;;;;;;;;;;5092487;28;20074;-80
2023/12/15 13:59:46;;;;;;;10.00;3.88;;;;;;;;;;5073293;28;20052;-80
2023/12/15 14:02:12;;;;;;;14.43;5.13;;;;;;;;;;5088114;28;20031;-80
2023/12/15 14:04:38;;;;;;;11.30;4.18;;;;;;;;;;5088361;28;20103;-81
2023/12/15 14:07:04;;;;;;;9.60;3.63;;;;;;;;;;5091418;28;20034;-81
2023/12/15 14:09:30;;;;;;;8.43;4.10;;;;;;;;;;5084125;28;20025;-80
2023/12/15 14:11:56;;;;;;;8.45;4.20;;;;;;;;;;5074095;28;20485;-82
2023/12/15 14:14:22;;;;;;;7.40;3.38;;;;;;;;;;5087282;28;20363;-81
2023/12/15 14:16:48;;;;;;;7.70;3.58;;;;;;;;;;5088914;28;20089;-81
2023/12/15 14:19:15;;;;;;;9.82;3.83;;;;;;;;;;5093505;28;20028;-80
2023/12/15 14:21:40;;;;;;;10.48;4.38;;;;;;;;;;5090337;28;20036;-80
2023/12/15 14:24:06;;;;;;;9.23;3.47;;;;;;;;;;5071734;28;20028;-80